SCSE/LSC METAR and TAF weather

Enter ICAO airport designator
Station Type Date Time Source
SCSE METAR 2019/04/25 07:00 UTC NOAA

SCSE 250700Z 13002KT 9999 BKN053 12/09 Q1016


Station Type Date Time Source
SCSE Decoded METAR 2019/04/25 07:00 UTC NOAA

La Serena, Chile (SCSE) 29-54S 071-12W
Apr 25, 2019 - 03:00 AM EDT / 2019.04.25 0700 UTC
Wind: from the SE (130 degrees) at 2 MPH (2 KT):0
Visibility: greater than 7 mile(s):0
Sky conditions: mostly cloudy
Temperature: 53 F (12 C)
Dew Point: 48 F (9 C)
Relative Humidity: 81%
Pressure (altimeter): 30.00 in. Hg (1016 hPa)
ob: SCSE 250700Z 13002KT 9999 BKN053 12/09 Q1016
cycle: 7

Station Type Date Time Source
SCSE TAF 2019/04/25 06:00 UTC NOAA

TAF SCSE 250410Z 2506/2606 12004KT 9999 FEW050 TX18/2518Z TN10/2511Z
TEMPO 2508/2514 VRB02KT BKN025
BECMG 2516/2518 28010KT
BECMG 2600/2602 30004KT

Example: see airport list